Time;durP1;ratioP1;P1;durP2;ratioP2;P2;SDS_P1;SDS_P2;PMS_P1;PMS_P2;Temp;Humidity;BMP_temperature;BMP_pressure;BME280_temperature;BME280_humidity;BME280_pressure;Samples;Min_cycle;Max_cycle;Signal;HPM_P1;HPM_P2
2022/05/18 00:00:23;;;;;;;22.73;8.98;;;;;;;15.88;100.00;101686.41;5146073;27;20027;-64
2022/05/18 00:02:49;;;;;;;21.13;8.45;;;;;;;15.90;100.00;101691.75;5145166;27;20035;-65
2022/05/18 00:05:15;;;;;;;23.00;9.25;;;;;;;15.81;100.00;101687.34;5145630;27;20418;-65
2022/05/18 00:07:40;;;;;;;22.45;9.10;;;;;;;15.80;100.00;101693.56;5146585;27;20015;-62
2022/05/18 00:10:06;;;;;;;23.48;9.02;;;;;;;15.77;100.00;101694.44;5144222;27;20029;-63
2022/05/18 00:12:32;;;;;;;19.95;8.57;;;;;;;15.80;100.00;101690.88;5147182;27;20041;-62
2022/05/18 00:14:58;;;;;;;24.63;9.50;;;;;;;15.84;100.00;101695.31;5143629;27;20044;-62
2022/05/18 00:17:23;;;;;;;21.95;9.70;;;;;;;15.65;100.00;101695.38;5146590;27;20040;-62
2022/05/18 00:19:48;;;;;;;22.05;8.93;;;;;;;15.60;100.00;101694.50;5144794;27;20050;-63
2022/05/18 00:22:14;;;;;;;20.45;9.25;;;;;;;15.66;100.00;101706.91;5144919;27;20035;-63
2022/05/18 00:24:40;;;;;;;24.08;9.50;;;;;;;15.56;100.00;101703.38;5145973;27;20023;-62
2022/05/18 00:27:05;;;;;;;23.13;10.18;;;;;;;15.50;100.00;101701.59;5143803;27;20139;-62
2022/05/18 00:29:32;;;;;;;22.25;10.00;;;;;;;15.37;100.00;101702.53;5147306;27;20019;-62
2022/05/18 00:31:57;;;;;;;22.92;10.13;;;;;;;15.23;100.00;101699.00;5143211;27;20027;-61
2022/05/18 00:34:23;;;;;;;23.30;10.98;;;;;;;15.24;100.00;101701.66;5146387;27;20061;-63
2022/05/18 00:36:48;;;;;;;23.58;10.63;;;;;;;15.19;100.00;101698.13;5144708;27;20075;-63
2022/05/18 00:39:14;;;;;;;21.55;9.82;;;;;;;15.21;100.00;101696.34;5144601;27;20062;-63
2022/05/18 00:41:39;;;;;;;23.55;10.07;;;;;;;15.25;100.00;101698.13;5145923;27;20033;-63
2022/05/18 00:44:05;;;;;;;22.27;9.70;;;;;;;15.31;100.00;101695.44;5143446;27;20068;-63
2022/05/18 00:46:31;;;;;;;22.20;10.13;;;;;;;15.40;100.00;101698.97;5146426;27;20091;-63
2022/05/18 00:48:57;;;;;;;23.83;10.55;;;;;;;15.35;100.00;101707.00;5143553;27;20019;-64
2022/05/18 00:51:38;;;;;;;23.15;10.02;;;;;;;15.25;100.00;101697.25;5145596;27;20058;-63
2022/05/18 00:54:12;;;;;;;21.40;9.85;;;;;;;15.17;100.00;101699.91;5139404;27;20050;-61
2022/05/18 00:57:09;;;;;;;21.90;9.82;;;;;;;15.12;100.00;101701.69;5145717;27;20031;-61
2022/05/18 00:59:43;;;;;;;22.02;9.95;;;;;;;15.17;100.00;101702.56;5139623;27;20058;-64
2022/05/18 01:02:10;;;;;;;21.85;10.00;;;;;;;15.15;100.00;101701.69;5145504;27;20064;-62
2022/05/18 01:04:39;;;;;;;22.50;10.90;;;;;;;15.05;100.00;101699.94;5143150;27;20098;-61
2022/05/18 01:07:16;;;;;;;23.88;11.20;;;;;;;15.09;100.00;101701.69;5146189;27;20022;-62
2022/05/18 01:09:44;;;;;;;23.67;11.02;;;;;;;15.02;100.00;101705.25;5144236;27;20114;-64
2022/05/18 01:12:15;;;;;;;22.67;10.60;;;;;;;15.07;100.00;101707.03;5145102;27;20036;-63
2022/05/18 01:14:44;;;;;;;22.38;10.95;;;;;;;15.01;100.00;101700.81;5143208;27;20040;-62
2022/05/18 01:17:12;;;;;;;22.52;11.02;;;;;;;14.86;100.00;101699.91;5145473;27;20022;-64
2022/05/18 01:19:47;;;;;;;22.10;10.35;;;;;;;14.82;100.00;101706.13;5143029;27;20068;-61
2022/05/18 01:22:34;;;;;;;21.92;10.77;;;;;;;14.79;100.00;101703.47;5144468;27;20019;-61
2022/05/18 01:25:05;;;;;;;21.42;10.88;;;;;;;14.75;100.00;101701.69;5138407;27;20023;-61
2022/05/18 01:27:31;;;;;;;24.33;11.27;;;;;;;14.81;100.00;101701.72;5138509;27;20440;-62
2022/05/18 01:29:57;;;;;;;23.30;11.45;;;;;;;14.82;100.00;101698.13;5127436;27;20069;-62
2022/05/18 01:32:23;;;;;;;22.98;11.00;;;;;;;14.85;100.00;101695.47;5142151;27;20014;-62
2022/05/18 01:34:48;;;;;;;22.58;11.50;;;;;;;14.88;100.00;101695.50;5144610;27;20023;-62
2022/05/18 01:37:15;;;;;;;21.95;11.55;;;;;;;14.76;100.00;101699.00;5144527;27;20015;-66
2022/05/18 01:39:53;;;;;;;23.30;13.00;;;;;;;14.63;100.00;101697.25;5143094;27;20423;-63
2022/05/18 01:42:25;;;;;;;24.65;12.45;;;;;;;14.61;100.00;101704.31;5143723;27;20027;-63
2022/05/18 01:44:50;;;;;;;25.17;13.13;;;;;;;14.58;100.00;101699.88;5144914;27;20023;-64
2022/05/18 01:47:16;;;;;;;24.38;12.27;;;;;;;14.56;100.00;101701.66;5144263;27;20022;-64
2022/05/18 01:49:44;;;;;;;22.83;11.65;;;;;;;14.56;100.00;101695.41;5143055;27;20467;-62
2022/05/18 01:52:10;;;;;;;22.80;12.13;;;;;;;14.57;100.00;101703.41;5144890;27;20114;-61
2022/05/18 01:54:40;;;;;;;24.58;12.30;;;;;;;14.52;100.00;101699.88;5142133;27;20102;-63
2022/05/18 01:57:06;;;;;;;25.63;12.38;;;;;;;14.50;100.00;101704.28;5145210;27;20026;-65
2022/05/18 01:59:32;;;;;;;21.95;11.75;;;;;;;14.38;100.00;101696.28;5142415;27;20044;-62
2022/05/18 02:01:58;;;;;;;24.05;11.70;;;;;;;14.34;100.00;101699.81;5145356;27;20027;-63
2022/05/18 02:04:23;;;;;;;23.95;11.93;;;;;;;14.30;100.00;101696.28;5142517;27;20362;-63
2022/05/18 02:06:49;;;;;;;22.40;11.50;;;;;;;14.32;100.00;101702.47;5144211;27;20462;-64
2022/05/18 02:09:16;;;;;;;24.42;11.70;;;;;;;14.22;100.00;101698.03;5144197;27;20544;-63
2022/05/18 02:11:42;;;;;;;23.88;12.20;;;;;;;14.20;100.00;101698.03;5143229;27;20098;-64
2022/05/18 02:14:09;;;;;;;23.88;11.57;;;;;;;14.25;100.00;101706.00;5144854;27;20039;-64
2022/05/18 02:16:34;;;;;;;23.00;11.93;;;;;;;14.26;100.00;101700.69;5141872;27;20027;-64
2022/05/18 02:19:00;;;;;;;26.40;13.85;;;;;;;14.22;100.00;101698.03;5145250;27;20093;-64
2022/05/18 02:21:25;;;;;;;22.50;11.10;;;;;;;14.20;100.00;101698.03;5142480;27;20020;-64
2022/05/18 02:23:51;;;;;;;24.80;12.18;;;;;;;14.19;100.00;101698.91;5143910;27;20110;-64
2022/05/18 02:26:18;;;;;;;27.35;13.27;;;;;;;14.10;100.00;101697.09;5143751;27;20384;-64
2022/05/18 02:28:43;;;;;;;25.17;13.40;;;;;;;14.13;100.00;101690.91;5143132;27;20406;-64
2022/05/18 02:31:10;;;;;;;25.67;14.13;;;;;;;14.24;100.00;101689.16;5144850;27;20071;-64
2022/05/18 02:33:36;;;;;;;27.80;13.70;;;;;;;14.33;100.00;101688.31;5141755;27;20084;-63
2022/05/18 02:36:02;;;;;;;23.90;13.27;;;;;;;14.37;100.00;101681.22;5145663;27;20031;-64
2022/05/18 02:38:28;;;;;;;27.92;13.07;;;;;;;14.35;100.00;101689.19;5141864;27;20038;-64
2022/05/18 02:40:58;;;;;;;27.42;12.75;;;;;;;14.35;100.00;101696.28;5144245;27;20023;-64
2022/05/18 02:43:23;;;;;;;27.45;13.23;;;;;;;14.22;100.00;101698.91;5143214;27;20027;-63
2022/05/18 02:45:49;;;;;;;23.77;12.50;;;;;;;14.26;100.00;101700.69;5147599;27;20076;-63
2022/05/18 02:48:14;;;;;;;25.17;12.55;;;;;;;14.31;100.00;101700.69;5147351;27;20444;-63
2022/05/18 02:50:40;;;;;;;24.08;12.50;;;;;;;14.35;100.00;101690.97;5146273;27;20046;-63
2022/05/18 02:53:06;;;;;;;28.77;12.73;;;;;;;14.36;100.00;101693.63;5148841;27;20062;-65
2022/05/18 02:58:15;;;;;;;27.42;12.93;;;;;;;14.36;100.00;101684.75;5145133;27;20123;-63
2022/05/18 03:00:40;;;;;;;24.45;12.95;;;;;;;14.43;100.00;101695.41;5148062;27;20042;-62
2022/05/18 03:03:06;;;;;;;26.20;13.63;;;;;;;14.46;100.00;101705.19;5144994;27;20422;-63
2022/05/18 03:05:31;;;;;;;25.00;12.27;;;;;;;14.44;100.00;101699.84;5148992;27;20374;-62
2022/05/18 03:07:58;;;;;;;24.88;12.00;;;;;;;14.32;100.00;101706.91;5145636;27;20030;-63
2022/05/18 03:10:24;;;;;;;23.63;12.32;;;;;;;14.29;100.00;101714.00;5147749;27;20358;-63
2022/05/18 03:12:49;;;;;;;25.35;13.00;;;;;;;14.36;100.00;101708.69;5146534;27;20030;-61
2022/05/18 03:15:15;;;;;;;23.77;13.05;;;;;;;14.42;100.00;101716.69;5146196;27;20039;-62
2022/05/18 03:17:40;;;;;;;25.70;13.20;;;;;;;14.26;100.00;101714.00;5147757;27;20022;-61
2022/05/18 03:20:07;;;;;;;25.75;13.40;;;;;;;14.30;100.00;101714.91;5145009;27;20473;-62
2022/05/18 03:25:16;;;;;;;26.08;13.57;;;;;;;14.17;100.00;101729.00;5144671;27;20041;-62
2022/05/18 03:27:42;;;;;;;24.80;13.48;;;;;;;14.16;100.00;101733.44;5147261;27;20543;-62
2022/05/18 03:30:10;;;;;;;25.20;13.27;;;;;;;14.19;100.00;101735.25;5145097;27;20023;-62
2022/05/18 03:32:35;;;;;;;25.00;13.20;;;;;;;14.23;100.00;101739.69;5147861;27;20026;-62
2022/05/18 03:35:01;;;;;;;26.83;13.05;;;;;;;14.34;100.00;101734.41;5144738;27;20020;-61
2022/05/18 03:37:26;;;;;;;24.25;12.82;;;;;;;14.27;100.00;101734.38;5147627;27;20045;-62
2022/05/18 03:39:51;;;;;;;25.70;12.88;;;;;;;14.33;100.00;101732.63;5145462;27;20026;-62
2022/05/18 03:42:17;;;;;;;24.00;12.88;;;;;;;14.27;100.00;101741.44;5145908;27;20034;-63
2022/05/18 03:44:42;;;;;;;24.42;13.05;;;;;;;14.32;100.00;101738.84;5147043;27;20110;-62
2022/05/18 03:47:07;;;;;;;24.83;12.77;;;;;;;14.35;100.00;101733.53;5144391;27;20498;-62
2022/05/18 03:49:33;;;;;;;26.08;13.15;;;;;;;14.25;100.00;101746.78;5148077;27;20030;-62
2022/05/18 03:51:58;;;;;;;25.05;13.13;;;;;;;14.35;100.00;101749.47;5144297;27;20031;-62
2022/05/18 03:54:24;;;;;;;24.40;12.68;;;;;;;14.27;100.00;101747.69;5146587;27;20019;-62
2022/05/18 03:56:50;;;;;;;24.75;12.23;;;;;;;14.42;100.00;101745.97;5144671;27;20038;-61
2022/05/18 03:59:15;;;;;;;26.52;12.48;;;;;;;14.46;100.00;101742.44;5145320;27;20019;-61
2022/05/18 04:01:41;;;;;;;22.95;12.88;;;;;;;14.52;100.00;101738.84;5146743;27;20023;-61
2022/05/18 04:04:06;;;;;;;26.30;13.60;;;;;;;14.66;100.00;101738.94;5125602;27;20483;-61
2022/05/18 04:06:32;;;;;;;25.98;13.52;;;;;;;14.79;100.00;101735.41;5147401;27;20069;-62
2022/05/18 04:08:57;;;;;;;25.20;12.55;;;;;;;14.87;100.00;101738.97;5144185;27;20035;-61
2022/05/18 04:11:22;;;;;;;24.95;12.98;;;;;;;14.94;100.00;101734.50;5128289;27;20031;-61
2022/05/18 04:13:48;;;;;;;24.23;12.85;;;;;;;15.08;100.00;101739.84;5145362;27;20023;-61
2022/05/18 04:16:13;;;;;;;22.48;12.65;;;;;;;15.23;100.00;101725.63;5144994;27;20505;-62
2022/05/18 04:18:40;;;;;;;23.30;12.93;;;;;;;15.30;100.00;101736.31;5146665;27;20418;-61
2022/05/18 04:21:06;;;;;;;22.95;12.10;;;;;;;15.47;100.00;101741.59;5143795;27;20382;-62
2022/05/18 04:23:32;;;;;;;23.45;12.25;;;;;;;15.61;100.00;101738.91;5139018;27;20027;-61
2022/05/18 04:25:57;;;;;;;22.27;11.70;;;;;;;15.79;100.00;101748.66;5144324;27;20115;-63
2022/05/18 04:28:23;;;;;;;23.70;12.38;;;;;;;15.93;100.00;101750.38;5145916;27;20019;-62
2022/05/18 04:30:49;;;;;;;23.38;11.15;;;;;;;16.12;100.00;101752.09;5145226;27;20132;-61
2022/05/18 04:33:18;;;;;;;22.85;11.32;;;;;;;16.27;100.00;101753.81;5144601;27;20476;-61
2022/05/18 04:35:44;;;;;;;21.95;10.60;;;;;;;16.45;100.00;101754.59;5145786;27;20541;-61
2022/05/18 04:38:09;;;;;;;23.13;11.05;;;;;;;16.47;100.00;101755.47;5143882;27;20051;-61
2022/05/18 04:40:35;;;;;;;25.15;10.32;;;;;;;16.59;100.00;101752.75;5147057;27;20015;-62
2022/05/18 04:43:00;;;;;;;22.65;10.80;;;;;;;16.59;100.00;101766.09;5142889;27;20032;-61
2022/05/18 04:45:28;;;;;;;23.00;9.77;;;;;;;16.72;100.00;101764.22;5146104;27;20151;-62
2022/05/18 04:47:53;;;;;;;22.33;10.13;;;;;;;16.81;100.00;101765.94;5144017;27;20056;-61
2022/05/18 04:50:21;;;;;;;21.73;10.15;;;;;;;16.92;100.00;101769.47;5144793;27;20480;-61
2022/05/18 04:52:47;;;;;;;21.60;9.32;;;;;;;17.10;100.00;101770.22;5145255;27;20110;-61
2022/05/18 04:55:12;;;;;;;22.42;9.52;;;;;;;17.21;100.00;101774.56;5143971;27;20019;-61
2022/05/18 04:57:39;;;;;;;20.52;9.20;;;;;;;17.33;100.00;101770.91;5146033;27;20040;-62
2022/05/18 05:00:07;;;;;;;20.73;8.95;;;;;;;17.47;100.00;101780.56;5142998;27;20023;-61
2022/05/18 05:02:37;;;;;;;21.17;9.20;;;;;;;17.55;100.00;101784.94;5138688;27;20072;-61
2022/05/18 05:05:06;;;;;;;20.45;8.95;;;;;;;17.65;100.00;101790.19;5138607;27;20069;-61
2022/05/18 05:07:31;;;;;;;21.35;8.88;;;;;;;17.74;100.00;101791.00;5138045;27;20015;-62
2022/05/18 05:09:56;;;;;;;20.95;8.80;;;;;;;17.85;100.00;101798.00;5145663;27;20484;-64
2022/05/18 05:12:22;;;;;;;21.10;8.63;;;;;;;17.98;100.00;101798.78;5143765;27;20481;-63
2022/05/18 05:14:47;;;;;;;20.60;8.45;;;;;;;18.09;100.00;101791.53;5144174;27;20078;-64
2022/05/18 05:17:12;;;;;;;20.35;8.45;;;;;;;18.21;100.00;101791.38;5145291;27;20042;-64
2022/05/18 05:19:38;;;;;;;20.33;8.30;;;;;;;18.34;100.00;101797.47;5142555;27;20039;-65
2022/05/18 05:22:03;;;;;;;19.92;8.48;;;;;;;18.47;100.00;101799.06;5146157;27;20031;-65
2022/05/18 05:24:29;;;;;;;20.38;8.10;;;;;;;18.56;100.00;101802.53;5142585;27;20448;-64
2022/05/18 05:26:54;;;;;;;20.52;7.82;;;;;;;18.63;100.00;101805.09;5145171;27;20023;-65
2022/05/18 05:29:20;;;;;;;20.27;8.05;;;;;;;18.65;100.00;101813.09;5144425;27;20457;-64
2022/05/18 05:31:46;;;;;;;19.95;8.15;;;;;;;18.66;100.00;101804.19;5143776;27;20462;-65
2022/05/18 05:34:12;;;;;;;20.40;8.27;;;;;;;18.67;100.00;101811.31;5131758;27;20105;-68
2022/05/18 05:36:37;;;;;;;21.35;8.50;;;;;;;18.67;100.00;101808.63;5132412;27;20023;-65
2022/05/18 05:39:03;;;;;;;21.52;8.00;;;;;;;18.68;100.00;101806.81;5137456;27;20421;-63
2022/05/18 05:41:28;;;;;;;21.30;8.13;;;;;;;18.69;100.00;101814.84;5135738;27;20113;-63
2022/05/18 05:43:55;;;;;;;20.20;7.97;;;;;;;18.74;100.00;101825.47;5135041;27;20499;-64
2022/05/18 05:46:21;;;;;;;19.98;8.35;;;;;;;18.79;100.00;101819.16;5138463;27;20046;-64
2022/05/18 05:48:47;;;;;;;21.02;8.32;;;;;;;18.91;100.00;101817.25;5135717;27;20063;-64
2022/05/18 05:51:13;;;;;;;20.48;8.15;;;;;;;19.07;100.00;101817.91;5140438;27;20015;-64
2022/05/18 05:53:39;;;;;;;19.92;8.02;;;;;;;19.21;100.00;101826.59;5137771;27;20027;-63
2022/05/18 05:56:06;;;;;;;19.83;7.90;;;;;;;19.33;100.00;101829.06;5135624;27;20030;-64
2022/05/18 05:58:33;;;;;;;19.23;7.60;;;;;;;19.46;100.00;101836.91;5138048;27;20015;-64
2022/05/18 06:00:59;;;;;;;20.13;7.88;;;;;;;19.57;100.00;101836.72;5138555;27;20056;-64
2022/05/18 06:03:25;;;;;;;19.95;7.50;;;;;;;19.65;100.00;101840.16;5119236;28;20027;-64
2022/05/18 06:05:51;;;;;;;21.52;7.60;;;;;;;19.69;100.00;101833.84;5138449;27;20023;-63
2022/05/18 06:08:17;;;;;;;21.60;7.13;;;;;;;19.76;100.00;101835.50;5115609;28;20541;-64
2022/05/18 06:10:42;;;;;;;21.83;7.47;;;;;;;19.82;100.00;101835.41;5136511;27;20019;-66
2022/05/18 06:13:10;;;;;;;20.35;7.30;;;;;;;19.91;100.00;101826.31;5138769;27;20034;-63
2022/05/18 06:15:36;;;;;;;20.75;7.20;;;;;;;19.97;100.00;101830.66;5136163;27;20069;-64
2022/05/18 06:18:01;;;;;;;19.63;7.10;;;;;;;20.00;100.00;101835.97;5139036;27;20481;-64
2022/05/18 06:20:27;;;;;;;20.83;7.10;;;;;;;20.04;100.00;101840.38;5136378;27;20055;-63
2022/05/18 06:22:52;;;;;;;20.90;7.40;;;;;;;20.09;100.00;101848.31;5142154;27;20027;-64
2022/05/18 06:25:18;;;;;;;21.42;7.10;;;;;;;20.14;100.00;101860.75;5139434;27;20031;-64
2022/05/18 06:27:44;;;;;;;19.63;6.68;;;;;;;20.24;100.00;101860.53;5139373;27;20148;-64
2022/05/18 06:30:12;;;;;;;20.77;7.00;;;;;;;20.32;100.00;101864.84;5132032;27;20076;-65
2022/05/18 06:32:37;;;;;;;21.90;6.80;;;;;;;20.39;100.00;101860.25;5143042;27;20023;-64
2022/05/18 06:35:04;;;;;;;21.58;6.50;;;;;;;20.45;100.00;101861.94;5140545;27;20033;-64
2022/05/18 06:37:29;;;;;;;21.45;6.80;;;;;;;20.44;100.00;101866.38;5142335;27;20027;-64
2022/05/18 06:39:54;;;;;;;20.95;6.80;;;;;;;20.48;100.00;101868.09;5143369;27;20087;-64
2022/05/18 06:42:21;;;;;;;22.67;6.88;;;;;;;20.49;100.00;101872.56;5137665;27;20446;-64
2022/05/18 06:44:50;;;;;;;22.10;7.10;;;;;;;20.47;100.00;101869.00;5138325;27;20035;-65
2022/05/18 06:47:16;;;;;;;21.33;6.63;;;;;;;20.49;100.00;101877.03;5140762;27;20037;-64
2022/05/18 06:49:41;;;;;;;20.70;7.03;;;;;;;20.54;100.00;101869.78;5140342;27;20030;-64
2022/05/18 06:52:09;;;;;;;21.00;7.43;;;;;;;20.55;100.00;101882.28;5141719;27;20025;-64
2022/05/18 06:54:35;;;;;;;19.98;7.30;;;;;;;20.50;100.00;101881.50;5142606;27;20030;-64
2022/05/18 06:57:00;;;;;;;23.17;8.13;;;;;;;20.47;100.00;101884.25;5141618;27;20034;-72
2022/05/18 06:59:25;;;;;;;23.70;8.10;;;;;;;20.42;100.00;101880.78;5142662;27;20039;-67
2022/05/18 07:01:51;;;;;;;23.95;8.20;;;;;;;20.43;100.00;101885.22;5142878;27;20072;-67
2022/05/18 07:04:16;;;;;;;23.42;8.70;;;;;;;20.40;100.00;101880.78;5140595;27;20077;-69
2022/05/18 07:06:44;;;;;;;21.55;9.15;;;;;;;20.34;100.00;101888.97;5136220;27;20457;-69
2022/05/18 07:09:13;;;;;;;23.00;9.68;;;;;;;20.35;100.00;101902.38;5138513;27;20019;-69
2022/05/18 07:11:39;;;;;;;23.25;9.40;;;;;;;20.51;100.00;101908.31;5137618;27;20034;-67
2022/05/18 07:14:05;;;;;;;24.40;11.80;;;;;;;20.63;100.00;101911.66;5137045;27;20079;-68
2022/05/18 07:16:32;;;;;;;23.23;11.65;;;;;;;20.78;100.00;101900.66;5142404;27;20549;-67
2022/05/18 07:18:58;;;;;;;25.38;12.70;;;;;;;21.03;100.00;101900.97;5141410;27;20027;-68
2022/05/18 07:21:25;;;;;;;25.38;12.90;;;;;;;20.88;100.00;101907.59;5142035;27;20031;-73
2022/05/18 07:23:52;;;;;;;24.63;11.90;;;;;;;20.96;100.00;101903.84;5141217;27;20027;-70
2022/05/18 07:26:18;;;;;;;24.58;12.63;;;;;;;21.07;100.00;101908.06;5140888;27;20025;-78
2022/05/18 07:28:44;;;;;;;25.48;11.88;;;;;;;21.03;100.00;101910.84;5139705;27;20011;-75
2022/05/18 07:31:10;;;;;;;24.73;11.90;;;;;;;20.95;100.00;101912.81;5141996;27;20081;-76
2022/05/18 07:33:36;;;;;;;26.33;12.73;;;;;;;20.95;100.00;101912.81;5136168;27;20430;-70
2022/05/18 07:36:02;;;;;;;25.15;11.80;;;;;;;20.90;100.00;101913.78;5116641;27;20019;-70
2022/05/18 07:38:30;;;;;;;22.70;11.35;;;;;;;20.91;100.00;101911.97;5136466;27;20470;-72
2022/05/18 07:40:55;;;;;;;26.63;12.10;;;;;;;20.92;100.00;101902.13;5137848;27;20027;-69
2022/05/18 07:43:21;;;;;;;25.55;12.40;;;;;;;20.92;100.00;101903.00;5137264;27;20488;-68
2022/05/18 07:45:48;;;;;;;23.30;11.55;;;;;;;20.92;100.00;101902.13;5138957;27;20037;-68
2022/05/18 07:48:13;;;;;;;23.00;11.45;;;;;;;21.04;100.00;101907.22;5138175;27;20019;-68
2022/05/18 07:50:38;;;;;;;22.88;12.27;;;;;;;21.25;100.00;101913.94;5142042;27;20027;-69
2022/05/18 07:53:04;;;;;;;24.25;11.98;;;;;;;21.33;100.00;101922.66;5139037;27;20023;-67
2022/05/18 07:55:30;;;;;;;25.30;12.35;;;;;;;21.53;100.00;101930.31;5140082;27;20035;-64
2022/05/18 07:57:55;;;;;;;24.20;12.10;;;;;;;21.46;100.00;101925.97;5140335;27;20023;-62
2022/05/18 08:00:23;;;;;;;23.75;12.25;;;;;;;21.67;100.00;101927.28;5141002;27;20030;-63
2022/05/18 08:02:48;;;;;;;25.88;12.95;;;;;;;21.76;100.00;101929.72;5141723;27;20031;-62
2022/05/18 08:05:13;;;;;;;25.15;13.40;;;;;;;21.64;100.00;101924.69;5139481;27;20050;-62
2022/05/18 08:07:45;;;;;;;24.95;13.35;;;;;;;21.63;100.00;101930.97;5146376;27;20409;-63
2022/05/18 08:15:44;;;;;;;26.58;13.70;;;;;;;21.79;100.00;101938.66;5143643;27;20508;-64
2022/05/18 08:18:10;;;;;;;25.13;13.73;;;;;;;21.65;100.00;101933.63;5146590;27;20031;-63
2022/05/18 08:20:39;;;;;;;25.85;13.88;;;;;;;21.58;100.00;101925.72;5145001;27;20030;-62
2022/05/18 08:23:04;;;;;;;25.08;13.82;;;;;;;21.88;100.00;101925.84;5145540;27;20027;-63
2022/05/18 08:25:29;;;;;;;27.77;13.93;;;;;;;22.27;100.00;101925.69;5145725;27;20033;-62
2022/05/18 08:27:55;;;;;;;24.17;13.43;;;;;;;22.43;100.00;101925.31;5144484;27;20023;-63
2022/05/18 08:30:22;;;;;;;25.45;13.63;;;;;;;22.63;100.00;101931.00;5147028;27;20457;-62
2022/05/18 08:32:47;;;;;;;24.95;13.40;;;;;;;22.74;100.00;101936.06;5143479;27;20015;-64
2022/05/18 08:35:14;;;;;;;24.67;13.57;;;;;;;22.97;100.00;101937.22;5146970;27;20026;-62
2022/05/18 08:37:47;;;;;;;23.05;13.23;;;;;;;23.28;100.00;101937.16;5144109;27;20019;-62
2022/05/18 08:40:28;;;;;;;23.83;12.65;;;;;;;23.61;100.00;101934.31;5139856;27;20027;-68
2022/05/18 08:42:55;;;;;;;24.50;12.05;;;;;;;23.89;100.00;101933.41;5135104;27;20027;-69
2022/05/18 08:45:22;;;;;;;24.30;12.88;;;;;;;24.00;100.00;101941.13;5137444;27;20505;-68
2022/05/18 08:48:05;;;;;;;23.15;11.10;;;;;;;24.13;100.00;101953.28;5137375;27;20091;-69
2022/05/18 08:50:32;;;;;;;23.75;10.15;;;;;;;23.97;100.00;101942.13;5139135;27;20105;-68
2022/05/18 08:53:13;;;;;;;22.63;9.98;;;;;;;24.28;100.00;101940.16;5138226;27;20019;-68
2022/05/18 08:55:54;;;;;;;21.02;8.27;;;;;;;24.44;100.00;101945.88;5138551;27;20061;-68
2022/05/18 08:58:29;;;;;;;22.45;8.77;;;;;;;24.41;100.00;101941.47;5137410;27;20019;-68
2022/05/18 09:01:01;;;;;;;21.23;8.48;;;;;;;24.37;99.93;101946.09;5137062;27;20118;-67
2022/05/18 09:03:37;;;;;;;21.85;9.85;;;;;;;24.11;100.00;101951.56;5137528;27;20494;-67
2022/05/18 09:06:05;;;;;;;22.42;9.20;;;;;;;23.68;100.00;101948.50;5138842;27;20018;-69
2022/05/18 09:08:37;;;;;;;21.67;8.70;;;;;;;23.85;100.00;101958.69;5134311;27;20362;-65
2022/05/18 09:11:07;;;;;;;23.67;9.50;;;;;;;23.95;100.00;101946.69;5139041;27;20037;-65
2022/05/18 09:13:33;;;;;;;21.58;9.38;;;;;;;24.09;98.67;101945.34;5135183;27;20642;-64
2022/05/18 09:16:27;;;;;;;21.13;9.20;;;;;;;24.32;99.40;101936.41;5140321;27;20054;-64
2022/05/18 09:19:02;;;;;;;22.02;10.15;;;;;;;24.64;98.41;101935.25;5141049;27;20019;-66
2022/05/18 09:21:43;;;;;;;20.95;9.27;;;;;;;25.00;95.47;101942.91;5137553;27;20030;-64
2022/05/18 09:24:18;;;;;;;24.95;10.48;;;;;;;24.96;98.58;101938.53;5137732;27;20132;-62
2022/05/18 09:26:43;;;;;;;21.17;9.20;;;;;;;25.13;96.72;101948.69;5138619;27;20469;-64
2022/05/18 09:29:22;;;;;;;21.67;8.98;;;;;;;25.04;94.75;101951.75;5136670;27;20034;-63
2022/05/18 09:32:19;;;;;;;20.92;9.05;;;;;;;25.20;96.07;101946.63;5135436;27;20450;-64
2022/05/18 09:35:03;;;;;;;18.08;5.78;;;;;;;25.37;92.63;101948.69;5138021;27;20022;-63
2022/05/18 09:37:28;;;;;;;15.70;4.50;;;;;;;25.40;88.79;101948.56;5133807;27;20058;-65
2022/05/18 09:40:20;;;;;;;16.25;4.20;;;;;;;25.79;90.13;101955.97;5134513;27;20062;-66
2022/05/18 09:42:55;;;;;;;9.65;3.15;;;;;;;25.99;80.63;101956.94;5138670;27;20110;-62
2022/05/18 09:45:26;;;;;;;13.13;3.97;;;;;;;26.24;80.78;101951.34;5139656;27;20035;-62
2022/05/18 09:47:56;;;;;;;15.77;4.20;;;;;;;26.40;79.84;101938.91;5145233;27;20015;-62
2022/05/18 09:50:22;;;;;;;16.15;4.57;;;;;;;26.60;76.43;101951.53;5143102;27;20050;-65
2022/05/18 09:52:50;;;;;;;17.50;5.18;;;;;;;26.69;72.60;101950.25;5145234;27;20430;-64
2022/05/18 09:55:20;;;;;;;15.45;4.50;;;;;;;27.57;68.65;101962.38;5146134;27;20027;-63
2022/05/18 09:57:52;;;;;;;16.73;4.40;;;;;;;29.13;63.56;101954.16;5142821;27;20023;-64
2022/05/18 10:00:24;;;;;;;16.27;4.65;;;;;;;30.62;45.47;101950.84;5143367;27;20027;-64
2022/05/18 10:08:33;;;;;;;17.35;4.85;;;;;;;31.88;37.60;101964.47;5144572;27;20034;-65
2022/05/18 10:11:05;;;;;;;15.15;4.57;;;;;;;32.50;35.14;101957.44;5148000;27;20110;-63
2022/05/18 10:13:34;;;;;;;13.95;4.65;;;;;;;32.49;34.15;101952.97;5148492;27;20038;-66
2022/05/18 10:16:14;;;;;;;16.83;4.53;;;;;;;31.93;33.50;101954.06;5147008;27;20095;-63
2022/05/18 10:18:45;;;;;;;13.23;3.90;;;;;;;31.76;34.77;101957.97;5149378;27;20045;-64
2022/05/18 10:21:16;;;;;;;10.63;3.17;;;;;;;32.08;35.22;101951.25;5141845;27;20035;-64
2022/05/18 10:23:50;;;;;;;14.38;3.55;;;;;;;32.97;33.83;101947.69;5141896;27;20035;-64
2022/05/18 10:26:28;;;;;;;11.15;3.08;;;;;;;33.67;32.35;101947.97;5142553;27;20024;-64
2022/05/18 10:29:08;;;;;;;11.80;3.70;;;;;;;33.57;30.94;101953.31;5130740;27;20023;-63
2022/05/18 10:31:40;;;;;;;12.30;3.53;;;;;;;32.78;31.10;101952.72;5148431;27;20023;-63
2022/05/18 10:34:17;;;;;;;11.75;3.30;;;;;;;33.75;30.66;101948.28;5146399;27;20031;-63
2022/05/18 10:36:57;;;;;;;12.40;3.10;;;;;;;35.36;29.40;101950.09;5141641;27;20422;-63
2022/05/18 10:39:36;;;;;;;11.95;3.17;;;;;;;35.29;29.10;101945.22;5144134;27;20028;-63
2022/05/18 10:42:23;;;;;;;12.23;3.20;;;;;;;35.38;28.81;101944.47;5146901;27;20056;-63
2022/05/18 10:44:49;;;;;;;12.68;3.17;;;;;;;36.31;27.53;101940.19;5143232;27;20111;-62
2022/05/18 10:47:21;;;;;;;13.43;4.18;;;;;;;35.87;27.85;101944.91;5149001;27;20457;-63
2022/05/18 10:49:47;;;;;;;13.25;4.43;;;;;;;35.39;26.79;101935.25;5142166;27;20109;-63
2022/05/18 10:52:35;;;;;;;17.20;4.60;;;;;;;35.89;27.36;101934.66;5149116;27;20106;-63
2022/05/18 10:55:14;;;;;;;14.88;4.35;;;;;;;36.84;26.35;101928.13;5146124;27;20045;-63
2022/05/18 10:57:46;;;;;;;15.50;4.30;;;;;;;37.20;25.02;101935.91;5145560;27;20080;-63
2022/05/18 11:00:17;;;;;;;13.25;3.88;;;;;;;36.27;27.32;101935.91;5141391;27;20111;-63
2022/05/18 11:03:21;;;;;;;15.30;4.40;;;;;;;36.35;26.80;101944.41;5141236;27;20027;-63
2022/05/18 11:05:53;;;;;;;15.50;4.38;;;;;;;36.50;26.71;101939.41;5141493;27;20368;-63
2022/05/18 11:08:22;;;;;;;16.63;4.70;;;;;;;36.12;27.13;101929.91;5147954;27;20517;-68
2022/05/18 11:10:52;;;;;;;15.27;4.57;;;;;;;35.44;27.10;101936.56;5143142;27;20028;-65
2022/05/18 11:13:27;;;;;;;17.03;4.30;;;;;;;34.55;29.47;101927.44;5148400;27;20097;-65
2022/05/18 11:16:20;;;;;;;12.60;3.95;;;;;;;34.55;29.15;101911.81;5140906;27;20292;-65
2022/05/18 11:19:01;;;;;;;16.15;4.25;;;;;;;34.86;30.18;101917.59;5043079;28;20048;-64
2022/05/18 11:21:48;;;;;;;14.03;3.80;;;;;;;36.17;28.35;101926.75;5041303;28;20514;-68
2022/05/18 11:24:34;;;;;;;15.48;4.88;;;;;;;36.08;27.52;101923.78;5041998;28;20195;-65
2022/05/18 11:27:42;;;;;;;14.80;4.00;;;;;;;36.67;27.52;101918.63;5039645;28;20029;-65
2022/05/18 11:30:08;;;;;;;14.55;3.80;;;;;;;37.15;25.70;101911.50;5041417;28;20459;-65